Providence, RI (02901)

2:51 PM EDT on September 01, 2015 (GMT -0400)
College Hill | | Change Station
CLOSE
Current Station
Personal Weather Station
Location: Providence, RI
Elevation: 81 ft
Nearby Weather Stations

Elev 81 ft 41.82 °N, 71.40 °W | Updated 3 minutes ago

Clear
Clear
85.4 °F
Feels Like 86 °F
N
4.0
Wind Variable Wind from East
Gusts 11.0 mph

Today
High -- | Low -- °F
--% Chance of Precip.
Yesterday
High -- | Low -- °F
Precip. -- in
6:11 AM 7:19 PM
Waning Gibbous, 87% visible
Pressure 30.04 in
Visibility 10.0 miles
Clouds Few 5000 ft
Few 30000 ft
Heat Index 86 °F
Dew Point 62 °F
Humidity 46%
Rainfall 0.00 in
Snow Depth Not available.
UV 8 out of 12
Pollen 9.00 out of 12
Air Quality Not available.
Flu Activity Not available.
METAR KPVD 011751Z 16006KT 10SM FEW050 FEW300 28/16 A3004 RMK AO2 SLP173 T02830156 10289 20228 56006
Pressure 30.04 in
Visibility 10.0 miles
Clouds Few 5000 ft
Few 30000 ft
Heat Index 86 °F
Dew Point 62 °F
Humidity 46%
Rainfall 0.00 in
Snow Depth Not available.
UV 8 out of 12
Pollen 9.00 out of 12
Air Quality Not available.
Flu Activity Not available.
METAR KPVD 011751Z 16006KT 10SM FEW050 FEW300 28/16 A3004 RMK AO2 SLP173 T02830156 10289 20228 56006

10-Day Weather Forecast

×

Almanac

Astronomy

Sep. 01, 2015 Rise Set
Actual Time
Civil Twilight
Nautical Twilight
Astronomical Twilight
Moon
Length of Visible Light
Length of Day
Tomorrow will be .
, % of the Moon is Illuminated

Today's Extremes

State Highs State Lows

Community

WunderPhotos

Upload Photos

1,851,593 photos uploaded!

WunderBlogs® & News

Nearby

Air Quality

  Air Quality AQ Index Pollutant
Not available.

Snow Depth

Station Depth Elevation

Earthquake Activity

City Distance Mag. Time & Date
Minimum magnitude displayed is 2.5.

Coastal Water Temperatures

Place Temperature

Stations

Nearby Weather Stations

Station Location Temp. Windchill Dew Point Humidity Wind Precip. Elev Updated Type